Time;durP1;ratioP1;P1;durP2;ratioP2;P2;SDS_P1;SDS_P2;PMS_P1;PMS_P2;Temp;Humidity;BMP_temperature;BMP_pressure;BME280_temperature;BME280_humidity;BME280_pressure;Samples;Min_cycle;Max_cycle;Signal;HPM_P1;HPM_P2
2022/06/16 00:02:01;;;;;;;8.10;4.32;;;;;;;;;;5116483;27;20067;-86
2022/06/16 00:04:27;;;;;;;8.80;4.35;;;;;;;;;;5111597;27;20039;-86
2022/06/16 00:06:56;;;;;;;6.60;4.03;;;;;;;;;;5102142;27;20077;-86
2022/06/16 00:09:26;;;;;;;7.88;4.25;;;;;;;;;;5103491;27;20043;-86
2022/06/16 00:11:54;;;;;;;8.38;4.82;;;;;;;;;;5110416;27;20038;-85
2022/06/16 00:14:22;;;;;;;9.10;4.53;;;;;;;;;;5098658;27;20049;-86
2022/06/16 00:16:48;;;;;;;9.70;4.55;;;;;;;;;;5107281;27;20311;-86
2022/06/16 00:19:15;;;;;;;11.07;5.10;;;;;;;;;;5106719;27;20050;-86
2022/06/16 00:21:42;;;;;;;10.70;5.03;;;;;;;;;;5116130;27;20121;-87
2022/06/16 00:24:08;;;;;;;8.80;4.65;;;;;;;;;;5128255;27;20360;-86
2022/06/16 00:26:34;;;;;;;8.20;4.97;;;;;;;;;;5111421;27;20035;-86
2022/06/16 00:29:00;;;;;;;8.70;4.88;;;;;;;;;;5087126;28;20062;-86
2022/06/16 00:31:26;;;;;;;8.57;4.82;;;;;;;;;;5123617;27;20035;-86
2022/06/16 00:33:52;;;;;;;8.82;4.70;;;;;;;;;;5095377;27;20392;-86
2022/06/16 00:36:19;;;;;;;7.22;4.35;;;;;;;;;;5105164;28;20380;-87
2022/06/16 00:38:45;;;;;;;12.43;4.85;;;;;;;;;;5101241;27;20047;-86
2022/06/16 00:41:11;;;;;;;9.45;5.10;;;;;;;;;;5097122;28;20122;-86
2022/06/16 00:43:37;;;;;;;9.55;5.05;;;;;;;;;;5090373;27;20126;-86
2022/06/16 00:46:08;;;;;;;8.25;4.95;;;;;;;;;;5096510;27;20031;-86
2022/06/16 00:48:41;;;;;;;8.20;4.80;;;;;;;;;;5118418;27;20105;-85
2022/06/16 00:51:08;;;;;;;10.20;5.00;;;;;;;;;;5106103;27;20043;-86
2022/06/16 00:53:35;;;;;;;9.43;5.18;;;;;;;;;;5092258;28;20126;-86
2022/06/16 00:56:01;;;;;;;9.27;4.88;;;;;;;;;;5114668;27;20569;-86
2022/06/16 00:58:28;;;;;;;8.65;4.60;;;;;;;;;;5100350;28;20043;-86
2022/06/16 01:00:54;;;;;;;8.18;4.82;;;;;;;;;;5097964;28;20261;-86
2022/06/16 01:06:19;;;;;;;11.30;6.30;;;;;;;;;;5119528;27;20254;-86
2022/06/16 01:08:46;;;;;;;8.45;4.43;;;;;;;;;;5105692;28;20046;-86
2022/06/16 01:13:41;;;;;;;8.75;4.82;;;;;;;;;;5094575;28;20111;-87
2022/06/16 01:14:04;;;;;;;8.98;4.25;;;;;;;;;;5118221;28;20043;-86
2022/06/16 01:16:35;;;;;;;9.02;4.45;;;;;;;;;;5104538;28;20546;-86
2022/06/16 01:19:19;;;;;;;7.82;4.78;;;;;;;;;;5094923;28;20044;-86
2022/06/16 01:22:07;;;;;;;9.60;5.00;;;;;;;;;;5112373;27;20091;-86
2022/06/16 01:24:49;;;;;;;8.93;4.78;;;;;;;;;;5100328;28;20055;-86
2022/06/16 01:27:18;;;;;;;11.20;5.88;;;;;;;;;;5101240;27;20038;-86
2022/06/16 01:29:51;;;;;;;8.80;4.97;;;;;;;;;;5105332;28;20052;-86
2022/06/16 01:32:29;;;;;;;9.55;4.70;;;;;;;;;;5108837;27;20486;-86
2022/06/16 01:34:56;;;;;;;9.73;4.95;;;;;;;;;;5098194;27;20139;-86
2022/06/16 01:37:42;;;;;;;10.38;5.45;;;;;;;;;;5107932;28;20162;-86
2022/06/16 01:40:17;;;;;;;9.20;4.72;;;;;;;;;;5108388;27;20112;-86
2022/06/16 01:42:53;;;;;;;9.38;4.85;;;;;;;;;;5093088;28;20040;-86
2022/06/16 01:45:29;;;;;;;7.97;4.15;;;;;;;;;;5094652;28;20039;-86
2022/06/16 01:47:55;;;;;;;11.93;4.60;;;;;;;;;;5107171;27;20081;-85
2022/06/16 01:50:30;;;;;;;9.45;5.03;;;;;;;;;;5097756;27;20061;-85
2022/06/16 01:52:58;;;;;;;9.77;4.65;;;;;;;;;;5108501;28;20402;-85
2022/06/16 01:55:27;;;;;;;9.32;5.07;;;;;;;;;;5104120;27;20043;-85
2022/06/16 01:57:56;;;;;;;8.80;4.97;;;;;;;;;;5117187;27;20058;-85
2022/06/16 02:00:24;;;;;;;9.55;5.03;;;;;;;;;;5127850;27;20050;-85
2022/06/16 02:02:59;;;;;;;9.07;4.88;;;;;;;;;;5100562;27;20107;-86
2022/06/16 02:05:32;;;;;;;10.13;4.90;;;;;;;;;;5119750;27;20046;-86
2022/06/16 02:08:06;;;;;;;8.85;4.65;;;;;;;;;;5110430;27;20398;-85
2022/06/16 02:10:35;;;;;;;7.43;4.70;;;;;;;;;;5098827;27;20124;-85
2022/06/16 02:13:04;;;;;;;9.15;4.30;;;;;;;;;;5121597;27;20122;-85
2022/06/16 02:15:30;;;;;;;9.35;4.75;;;;;;;;;;5124918;27;20405;-85
2022/06/16 02:17:57;;;;;;;11.13;4.70;;;;;;;;;;5097389;27;20046;-85
2022/06/16 02:20:26;;;;;;;8.40;4.93;;;;;;;;;;5108859;28;20051;-84
2022/06/16 02:22:53;;;;;;;8.10;5.15;;;;;;;;;;5103059;27;20455;-85
2022/06/16 02:25:19;;;;;;;11.20;5.50;;;;;;;;;;5100146;28;20032;-84
2022/06/16 02:27:45;;;;;;;10.57;5.78;;;;;;;;;;5093719;27;20524;-84
2022/06/16 02:30:11;;;;;;;7.18;4.30;;;;;;;;;;5101433;27;20039;-86
2022/06/16 02:32:44;;;;;;;9.38;5.32;;;;;;;;;;5107828;27;20050;-86
2022/06/16 02:35:29;;;;;;;9.05;4.88;;;;;;;;;;5127524;27;20409;-86
2022/06/16 02:37:55;;;;;;;;;;;;;;;;;;5118215;27;20069;-86
2022/06/16 02:40:51;;;;;;;8.82;5.25;;;;;;;;;;5109178;27;19955;-86
2022/06/16 02:43:17;;;;;;;8.65;4.72;;;;;;;;;;5091675;27;20039;-86
2022/06/16 02:45:50;;;;;;;10.93;5.65;;;;;;;;;;5100280;27;20371;-85
2022/06/16 02:48:21;;;;;;;8.75;4.88;;;;;;;;;;5108903;27;20035;-85
2022/06/16 02:51:06;;;;;;;9.77;5.70;;;;;;;;;;5109198;27;20052;-85
2022/06/16 02:56:26;;;;;;;8.95;5.47;;;;;;;;;;5133973;27;20078;-84
2022/06/16 02:58:53;;;;;;;12.30;5.78;;;;;;;;;;5101900;27;20122;-86
2022/06/16 03:01:20;;;;;;;11.30;5.60;;;;;;;;;;5112769;27;20053;-86
2022/06/16 03:04:05;;;;;;;8.60;5.75;;;;;;;;;;5119554;27;20095;-86
2022/06/16 03:06:31;;;;;;;8.98;6.18;;;;;;;;;;5121055;27;20379;-86
2022/06/16 03:08:57;;;;;;;10.18;5.82;;;;;;;;;;5129575;27;20099;-86
2022/06/16 03:11:37;;;;;;;8.68;4.90;;;;;;;;;;5100662;27;20728;-86
2022/06/16 03:14:04;;;;;;;10.70;4.90;;;;;;;;;;5106322;27;20398;-85
2022/06/16 03:16:31;;;;;;;8.90;4.88;;;;;;;;;;5127104;27;20043;-85
2022/06/16 03:18:57;;;;;;;7.68;5.10;;;;;;;;;;5099709;27;20125;-85
2022/06/16 03:21:23;;;;;;;9.18;4.57;;;;;;;;;;5110998;27;20659;-85
2022/06/16 03:23:58;;;;;;;8.95;4.55;;;;;;;;;;5122206;27;20043;-85
2022/06/16 03:26:24;;;;;;;9.27;4.72;;;;;;;;;;5102084;27;20038;-85
2022/06/16 03:28:51;;;;;;;8.65;4.90;;;;;;;;;;5097829;27;20134;-84
2022/06/16 03:31:17;;;;;;;9.75;4.50;;;;;;;;;;5110327;27;20395;-86
2022/06/16 03:33:43;;;;;;;8.73;4.32;;;;;;;;;;5096579;27;20426;-84
2022/06/16 03:36:11;;;;;;;6.95;4.60;;;;;;;;;;5096547;27;20050;-84
2022/06/16 03:41:03;;;;;;;8.07;4.97;;;;;;;;;;5114126;27;20043;-84
2022/06/16 03:43:30;;;;;;;8.40;5.35;;;;;;;;;;5106220;27;20418;-84
2022/06/16 03:45:56;;;;;;;10.02;5.10;;;;;;;;;;5102267;27;20476;-84
2022/06/16 03:48:22;;;;;;;9.05;5.63;;;;;;;;;;5112603;27;20087;-84
2022/06/16 03:50:48;;;;;;;10.32;5.93;;;;;;;;;;5100602;27;20203;-84
2022/06/16 03:53:14;;;;;;;9.73;5.75;;;;;;;;;;5116219;27;20046;-84
2022/06/16 03:55:41;;;;;;;8.60;5.43;;;;;;;;;;5103365;27;20062;-84
2022/06/16 03:58:07;;;;;;;8.80;5.80;;;;;;;;;;5112452;27;20419;-84
2022/06/16 04:00:33;;;;;;;9.07;4.68;;;;;;;;;;5129123;27;20035;-84
2022/06/16 04:05:44;;;;;;;7.60;4.88;;;;;;;;;;5118293;27;20050;-84
2022/06/16 04:08:11;;;;;;;8.82;4.82;;;;;;;;;;5111513;27;20035;-84
2022/06/16 04:10:37;;;;;;;7.50;4.43;;;;;;;;;;5101244;27;20035;-84
2022/06/16 04:13:03;;;;;;;8.85;5.03;;;;;;;;;;5122986;27;20084;-84
2022/06/16 04:15:30;;;;;;;8.50;5.25;;;;;;;;;;5110151;27;20458;-84
2022/06/16 04:17:56;;;;;;;10.23;5.38;;;;;;;;;;5097959;27;20448;-84
2022/06/16 04:20:22;;;;;;;8.75;5.25;;;;;;;;;;5101753;27;20038;-84
2022/06/16 04:22:50;;;;;;;8.20;5.47;;;;;;;;;;5107500;27;20178;-83
2022/06/16 04:25:21;;;;;;;9.27;5.50;;;;;;;;;;5110546;27;20039;-83
2022/06/16 04:27:47;;;;;;;9.85;5.53;;;;;;;;;;5115516;27;20039;-83
2022/06/16 04:30:14;;;;;;;8.20;4.70;;;;;;;;;;5113019;27;20108;-83
2022/06/16 04:32:41;;;;;;;6.85;4.22;;;;;;;;;;5105708;27;20035;-83
2022/06/16 04:35:08;;;;;;;9.80;5.60;;;;;;;;;;5133558;27;20042;-83
2022/06/16 04:37:34;;;;;;;8.90;5.35;;;;;;;;;;5116412;27;20077;-84
2022/06/16 04:40:01;;;;;;;9.32;5.68;;;;;;;;;;5116810;27;20035;-83
2022/06/16 04:42:27;;;;;;;9.18;5.65;;;;;;;;;;5106695;27;20376;-84
2022/06/16 04:44:53;;;;;;;11.60;6.57;;;;;;;;;;5108008;27;20046;-84
2022/06/16 04:47:19;;;;;;;10.13;5.72;;;;;;;;;;5132239;27;20069;-84
2022/06/16 04:49:48;;;;;;;10.52;5.60;;;;;;;;;;5099906;27;20033;-84
2022/06/16 04:52:18;;;;;;;9.18;5.95;;;;;;;;;;5106220;27;20046;-84
2022/06/16 04:54:48;;;;;;;10.20;5.15;;;;;;;;;;5108416;27;20053;-84
2022/06/16 04:57:14;;;;;;;9.70;5.38;;;;;;;;;;5116352;27;20047;-84
2022/06/16 04:59:41;;;;;;;8.00;4.80;;;;;;;;;;5117815;27;20541;-84
2022/06/16 05:02:08;;;;;;;8.48;4.97;;;;;;;;;;5134416;27;20080;-84
2022/06/16 05:04:35;;;;;;;8.02;5.15;;;;;;;;;;5117525;27;20049;-84
2022/06/16 05:07:02;;;;;;;7.40;4.85;;;;;;;;;;5099356;27;20118;-84
2022/06/16 05:09:28;;;;;;;9.25;4.88;;;;;;;;;;5117096;27;20111;-84
2022/06/16 05:11:54;;;;;;;8.98;5.00;;;;;;;;;;5116642;27;20094;-85
2022/06/16 05:14:21;;;;;;;9.32;4.65;;;;;;;;;;5103458;28;20044;-84
2022/06/16 05:16:49;;;;;;;7.90;4.43;;;;;;;;;;5095457;27;20074;-85
2022/06/16 05:19:15;;;;;;;9.02;5.30;;;;;;;;;;5117243;27;20030;-84
2022/06/16 05:21:41;;;;;;;10.57;5.00;;;;;;;;;;5134053;27;20081;-84
2022/06/16 05:24:08;;;;;;;10.18;4.97;;;;;;;;;;5104763;28;20085;-84
2022/06/16 05:26:34;;;;;;;9.93;4.75;;;;;;;;;;5097092;28;20065;-85
2022/06/16 05:29:00;;;;;;;8.23;4.78;;;;;;;;;;5096615;28;20047;-85
2022/06/16 05:31:27;;;;;;;6.88;4.50;;;;;;;;;;5119844;27;20039;-85
2022/06/16 05:33:53;;;;;;;7.47;4.55;;;;;;;;;;5116368;27;20087;-85
2022/06/16 05:36:19;;;;;;;9.05;4.30;;;;;;;;;;5100106;28;20114;-85
2022/06/16 05:38:46;;;;;;;9.60;4.35;;;;;;;;;;5114576;27;20553;-84
2022/06/16 05:41:14;;;;;;;9.13;4.43;;;;;;;;;;5115468;27;20050;-85
2022/06/16 05:43:40;;;;;;;8.93;4.95;;;;;;;;;;5103992;28;20039;-85
2022/06/16 05:46:08;;;;;;;6.95;4.32;;;;;;;;;;5096251;28;20052;-85
2022/06/16 05:48:34;;;;;;;7.63;4.15;;;;;;;;;;5098939;27;20493;-85
2022/06/16 05:51:09;;;;;;;8.40;3.88;;;;;;;;;;5126001;28;20481;-84
2022/06/16 05:53:36;;;;;;;8.93;4.72;;;;;;;;;;5107872;27;20088;-84
2022/06/16 05:56:02;;;;;;;7.93;3.97;;;;;;;;;;5118140;27;20042;-84
2022/06/16 05:58:28;;;;;;;7.88;4.63;;;;;;;;;;5117600;27;20045;-84
2022/06/16 06:00:54;;;;;;;6.80;4.32;;;;;;;;;;5115935;27;20034;-85
2022/06/16 06:03:21;;;;;;;7.53;4.28;;;;;;;;;;5115925;27;20049;-85
2022/06/16 06:05:47;;;;;;;7.43;4.00;;;;;;;;;;5115450;27;20064;-85
2022/06/16 06:16:35;;;;;;;9.23;4.45;;;;;;;;;;5121870;27;19922;-85
2022/06/16 06:19:23;;;;;;;8.73;3.95;;;;;;;;;;5136522;27;20375;-84
2022/06/16 06:22:01;;;;;;;6.25;3.25;;;;;;;;;;5136811;27;20049;-85
2022/06/16 06:24:29;;;;;;;8.52;4.03;;;;;;;;;;5111642;27;20032;-86
2022/06/16 06:26:56;;;;;;;8.20;3.70;;;;;;;;;;5109199;27;20118;-85
2022/06/16 06:29:23;;;;;;;5.60;2.92;;;;;;;;;;5099646;28;20185;-83
2022/06/16 06:31:49;;;;;;;9.05;3.60;;;;;;;;;;5080482;28;20043;-85
2022/06/16 06:34:15;;;;;;;6.57;2.78;;;;;;;;;;5096640;28;20042;-84
2022/06/16 06:36:41;;;;;;;5.72;2.35;;;;;;;;;;5096206;28;20487;-85
2022/06/16 06:39:08;;;;;;;5.07;2.50;;;;;;;;;;5094733;28;20093;-85
2022/06/16 06:41:34;;;;;;;5.38;2.72;;;;;;;;;;5127437;27;20081;-84
2022/06/16 06:44:01;;;;;;;8.27;2.60;;;;;;;;;;5083114;28;20569;-84
2022/06/16 06:46:27;;;;;;;9.70;3.10;;;;;;;;;;5104364;27;20039;-86
2022/06/16 06:48:53;;;;;;;8.48;3.35;;;;;;;;;;5117404;27;20032;-85
2022/06/16 06:51:19;;;;;;;8.00;3.10;;;;;;;;;;5110724;27;20406;-83
2022/06/16 06:53:46;;;;;;;7.90;3.30;;;;;;;;;;5115697;27;20072;-84
2022/06/16 06:56:14;;;;;;;5.22;2.53;;;;;;;;;;5115071;27;20095;-84
2022/06/16 06:58:40;;;;;;;8.50;2.60;;;;;;;;;;5133918;27;20058;-84
2022/06/16 07:01:07;;;;;;;4.43;2.65;;;;;;;;;;5115275;27;20078;-83
2022/06/16 07:03:33;;;;;;;6.05;2.78;;;;;;;;;;5111001;28;20600;-84
2022/06/16 07:06:03;;;;;;;8.25;2.83;;;;;;;;;;5098223;28;20043;-81
2022/06/16 07:08:30;;;;;;;9.00;3.85;;;;;;;;;;5109410;27;20066;-82
2022/06/16 07:10:57;;;;;;;6.43;3.55;;;;;;;;;;5133117;27;20474;-80
2022/06/16 07:13:24;;;;;;;5.80;3.28;;;;;;;;;;5095943;28;20043;-82
2022/06/16 07:15:50;;;;;;;5.95;2.78;;;;;;;;;;5098446;28;20085;-82
2022/06/16 07:18:16;;;;;;;6.45;2.40;;;;;;;;;;5097622;28;20469;-81
2022/06/16 07:20:42;;;;;;;9.45;2.40;;;;;;;;;;5114764;28;20043;-82
2022/06/16 07:23:10;;;;;;;4.50;1.83;;;;;;;;;;5095471;28;20085;-80
2022/06/16 07:25:36;;;;;;;4.65;2.10;;;;;;;;;;5103778;27;20043;-81
2022/06/16 07:28:03;;;;;;;4.95;2.08;;;;;;;;;;5119029;27;20045;-81
2022/06/16 07:30:29;;;;;;;6.00;2.33;;;;;;;;;;5105003;27;20078;-81
2022/06/16 07:32:55;;;;;;;7.55;2.70;;;;;;;;;;5116478;27;20454;-81
2022/06/16 07:35:23;;;;;;;6.47;2.10;;;;;;;;;;5112227;27;20096;-81
2022/06/16 07:37:49;;;;;;;4.63;2.50;;;;;;;;;;5110122;27;20118;-82
2022/06/16 07:40:17;;;;;;;4.78;2.42;;;;;;;;;;5104901;27;20074;-81
2022/06/16 07:42:44;;;;;;;5.28;2.45;;;;;;;;;;5119412;27;20082;-81
2022/06/16 07:45:12;;;;;;;5.05;2.28;;;;;;;;;;5124899;27;20038;-82
2022/06/16 07:47:38;;;;;;;6.82;2.85;;;;;;;;;;5134911;27;20070;-84
2022/06/16 07:50:08;;;;;;;6.28;2.33;;;;;;;;;;5102475;27;20031;-83
2022/06/16 07:52:35;;;;;;;6.10;2.53;;;;;;;;;;5112687;27;20047;-85
2022/06/16 07:55:01;;;;;;;6.63;2.45;;;;;;;;;;5103492;27;20043;-82
2022/06/16 07:57:30;;;;;;;3.97;2.15;;;;;;;;;;5100168;28;20039;-83
2022/06/16 07:59:57;;;;;;;5.90;2.55;;;;;;;;;;5076664;28;20372;-84
2022/06/16 08:02:23;;;;;;;6.15;2.13;;;;;;;;;;5095998;27;20039;-83
2022/06/16 08:04:49;;;;;;;6.97;2.50;;;;;;;;;;5119924;27;20083;-83
2022/06/16 08:07:16;;;;;;;4.32;2.25;;;;;;;;;;5104109;27;20455;-82
2022/06/16 08:09:43;;;;;;;4.55;2.03;;;;;;;;;;5110758;27;20034;-82
2022/06/16 08:12:10;;;;;;;6.43;2.30;;;;;;;;;;5099090;27;20078;-88
2022/06/16 08:14:39;;;;;;;5.95;2.30;;;;;;;;;;5108881;27;20494;-85
2022/06/16 08:17:26;;;;;;;4.35;1.75;;;;;;;;;;5107158;27;20087;-81
2022/06/16 08:19:53;;;;;;;6.45;2.28;;;;;;;;;;5099313;27;20031;-78
2022/06/16 08:22:20;;;;;;;5.13;2.17;;;;;;;;;;5116021;27;20046;-82
2022/06/16 08:24:49;;;;;;;5.60;2.30;;;;;;;;;;5133009;27;20039;-81
2022/06/16 08:27:17;;;;;;;6.22;2.00;;;;;;;;;;5104068;27;20031;-83
2022/06/16 08:29:43;;;;;;;5.47;2.25;;;;;;;;;;5097766;27;20439;-83
2022/06/16 08:32:10;;;;;;;6.75;2.22;;;;;;;;;;5117433;27;20042;-82
2022/06/16 08:34:37;;;;;;;4.80;2.15;;;;;;;;;;5132997;27;20071;-82
2022/06/16 08:37:03;;;;;;;5.10;2.45;;;;;;;;;;5102808;27;20061;-82
2022/06/16 08:39:29;;;;;;;5.22;2.30;;;;;;;;;;5113928;27;20499;-84
2022/06/16 08:42:03;;;;;;;4.65;2.55;;;;;;;;;;5101270;27;20486;-82
2022/06/16 08:44:34;;;;;;;5.38;2.50;;;;;;;;;;5116523;27;20031;-82
2022/06/16 08:47:16;;;;;;;6.35;2.75;;;;;;;;;;5100829;27;20043;-81
2022/06/16 08:49:46;;;;;;;8.23;2.58;;;;;;;;;;5101279;27;20559;-88
2022/06/16 08:52:20;;;;;;;6.68;2.45;;;;;;;;;;5106991;28;20035;-84
2022/06/16 08:54:51;;;;;;;6.45;2.38;;;;;;;;;;5109669;27;20030;-83
2022/06/16 08:57:36;;;;;;;4.55;2.17;;;;;;;;;;5097439;27;20032;-85
2022/06/16 09:00:02;;;;;;;;;;;;;;;;;;5123220;27;20068;-85
2022/06/16 09:02:52;;;;;;;5.40;2.55;;;;;;;;;;5103316;27;19919;-83
2022/06/16 09:05:34;;;;;;;5.43;2.70;;;;;;;;;;5096342;28;20286;-83
2022/06/16 09:08:08;;;;;;;5.05;2.75;;;;;;;;;;5105044;27;20118;-82
2022/06/16 09:10:48;;;;;;;7.35;3.22;;;;;;;;;;5133595;27;20039;-81
2022/06/16 09:13:39;;;;;;;7.30;2.88;;;;;;;;;;5108071;28;20043;-81
2022/06/16 09:16:28;;;;;;;7.20;2.95;;;;;;;;;;5098496;28;20505;-82
2022/06/16 09:19:06;;;;;;;5.38;2.90;;;;;;;;;;5096212;28;20039;-80
2022/06/16 09:21:36;;;;;;;5.13;2.75;;;;;;;;;;5098189;28;20559;-81
2022/06/16 09:24:02;;;;;;;5.50;2.50;;;;;;;;;;5113560;28;20035;-80
2022/06/16 09:26:35;;;;;;;6.38;2.97;;;;;;;;;;5113179;27;20513;-82
2022/06/16 09:29:05;;;;;;;7.38;2.92;;;;;;;;;;5118175;27;20090;-81
2022/06/16 09:31:34;;;;;;;6.30;2.75;;;;;;;;;;5108655;28;20043;-80
2022/06/16 09:34:04;;;;;;;7.22;3.35;;;;;;;;;;5109033;27;20121;-82
2022/06/16 09:36:34;;;;;;;8.65;3.20;;;;;;;;;;5099513;28;20050;-82
2022/06/16 09:39:06;;;;;;;5.60;3.40;;;;;;;;;;5098584;28;20463;-82
2022/06/16 09:44:28;;;;;;;8.32;2.72;;;;;;;;;;5116268;27;20520;-82
2022/06/16 09:46:57;;;;;;;5.35;2.95;;;;;;;;;;5100852;27;20046;-81
2022/06/16 09:49:30;;;;;;;6.15;3.33;;;;;;;;;;5096993;28;20060;-81
2022/06/16 09:52:00;;;;;;;6.32;3.50;;;;;;;;;;5082788;28;20051;-82
2022/06/16 09:54:29;;;;;;;5.88;3.13;;;;;;;;;;5083386;28;20094;-82
2022/06/16 09:57:15;;;;;;;5.88;3.17;;;;;;;;;;5083683;28;20486;-82
2022/06/16 09:59:47;;;;;;;10.15;4.63;;;;;;;;;;5079154;28;20050;-80
2022/06/16 10:02:21;;;;;;;8.70;4.00;;;;;;;;;;5083224;28;20182;-82
2022/06/16 10:04:51;;;;;;;15.80;6.30;;;;;;;;;;5098557;28;20183;-80
2022/06/16 10:07:24;;;;;;;6.90;4.30;;;;;;;;;;5097200;28;20085;-82
2022/06/16 10:09:56;;;;;;;7.57;4.22;;;;;;;;;;5081932;28;20035;-82
2022/06/16 10:12:35;;;;;;;9.30;3.83;;;;;;;;;;5080115;28;20036;-82
2022/06/16 10:15:15;;;;;;;7.82;3.70;;;;;;;;;;5081617;28;20039;-81
2022/06/16 10:17:43;;;;;;;6.95;3.80;;;;;;;;;;5083704;27;20687;-83
2022/06/16 10:20:11;;;;;;;12.45;5.40;;;;;;;;;;5133266;27;20089;-83
2022/06/16 10:22:38;;;;;;;8.60;4.30;;;;;;;;;;5100007;27;20084;-81
2022/06/16 10:25:14;;;;;;;7.88;4.10;;;;;;;;;;5101485;27;20127;-81
2022/06/16 10:27:46;;;;;;;6.38;3.75;;;;;;;;;;5120277;27;20042;-81
2022/06/16 10:30:21;;;;;;;8.02;4.07;;;;;;;;;;5115554;27;20046;-81
2022/06/16 10:32:57;;;;;;;7.32;3.90;;;;;;;;;;5101562;27;20043;-82
2022/06/16 10:35:24;;;;;;;8.05;3.50;;;;;;;;;;5117226;27;20047;-82
2022/06/16 10:37:52;;;;;;;6.03;3.63;;;;;;;;;;5121967;27;20084;-82
2022/06/16 10:40:27;;;;;;;6.65;3.55;;;;;;;;;;5120266;27;20041;-82
2022/06/16 10:42:57;;;;;;;8.45;4.00;;;;;;;;;;5124470;27;20035;-82
2022/06/16 10:45:28;;;;;;;5.95;3.30;;;;;;;;;;5117366;27;20063;-82
2022/06/16 10:48:00;;;;;;;8.05;4.55;;;;;;;;;;5104192;27;20046;-82
2022/06/16 10:50:46;;;;;;;6.65;3.67;;;;;;;;;;5120424;27;20048;-82
2022/06/16 10:53:27;;;;;;;6.50;3.80;;;;;;;;;;5139203;27;20034;-84
2022/06/16 10:56:01;;;;;;;6.82;3.45;;;;;;;;;;5131032;27;20043;-80
2022/06/16 10:58:30;;;;;;;8.77;4.53;;;;;;;;;;5127784;27;20046;-81
2022/06/16 11:00:59;;;;;;;7.30;4.22;;;;;;;;;;5102721;27;20555;-81
2022/06/16 11:03:26;;;;;;;6.95;3.90;;;;;;;;;;5103226;27;20491;-80
2022/06/16 11:05:57;;;;;;;8.93;4.57;;;;;;;;;;5116623;27;20262;-83
2022/06/16 11:08:25;;;;;;;7.25;3.72;;;;;;;;;;5117359;27;20369;-81
2022/06/16 11:10:54;;;;;;;7.53;3.90;;;;;;;;;;5114960;27;20039;-85
2022/06/16 11:13:22;;;;;;;7.93;3.92;;;;;;;;;;5099351;27;20128;-81
2022/06/16 11:15:50;;;;;;;8.02;4.15;;;;;;;;;;5098827;27;20042;-81
2022/06/16 11:18:19;;;;;;;8.20;3.95;;;;;;;;;;5112158;27;20066;-82
2022/06/16 11:20:48;;;;;;;6.70;3.28;;;;;;;;;;5120286;27;20498;-81
2022/06/16 11:23:29;;;;;;;8.20;3.85;;;;;;;;;;5137182;27;20042;-82
2022/06/16 11:26:17;;;;;;;6.95;4.13;;;;;;;;;;5119924;27;20121;-81
2022/06/16 11:28:45;;;;;;;6.68;3.67;;;;;;;;;;5137248;27;20046;-83
2022/06/16 11:31:37;;;;;;;8.00;3.38;;;;;;;;;;5141940;27;20053;-81
2022/06/16 11:34:06;;;;;;;7.25;3.72;;;;;;;;;;5136483;27;20050;-82
2022/06/16 11:36:45;;;;;;;7.63;3.97;;;;;;;;;;5137801;27;20057;-82
2022/06/16 11:39:33;;;;;;;8.93;3.88;;;;;;;;;;5136640;27;20039;-82
2022/06/16 11:41:59;;;;;;;8.25;4.50;;;;;;;;;;5122175;27;20039;-80
2022/06/16 11:44:37;;;;;;;8.68;4.18;;;;;;;;;;5117461;27;20103;-81
2022/06/16 11:47:22;;;;;;;7.45;4.32;;;;;;;;;;5119207;27;20035;-81
2022/06/16 11:50:18;;;;;;;6.43;3.53;;;;;;;;;;5119199;27;20035;-82
2022/06/16 11:52:50;;;;;;;7.15;3.70;;;;;;;;;;5137039;27;20405;-82
2022/06/16 11:55:19;;;;;;;6.07;3.60;;;;;;;;;;5140620;27;20045;-82
2022/06/16 11:57:50;;;;;;;8.27;3.65;;;;;;;;;;5118902;27;20046;-81
2022/06/16 12:00:17;;;;;;;7.85;4.88;;;;;;;;;;5114774;27;20043;-82
2022/06/16 12:02:43;;;;;;;7.68;3.75;;;;;;;;;;5128959;27;20038;-81
2022/06/16 12:05:29;;;;;;;8.43;4.15;;;;;;;;;;5107345;27;20045;-84
2022/06/16 12:07:55;;;;;;;7.43;4.50;;;;;;;;;;5115440;27;20035;-81
2022/06/16 12:10:28;;;;;;;5.72;3.50;;;;;;;;;;5136972;27;20030;-84
2022/06/16 12:13:00;;;;;;;6.22;3.70;;;;;;;;;;5108408;27;20047;-82
2022/06/16 12:15:26;;;;;;;7.15;3.95;;;;;;;;;;5114856;27;20444;-85
2022/06/16 12:18:02;;;;;;;8.32;3.88;;;;;;;;;;5120370;27;20061;-82
2022/06/16 12:20:37;;;;;;;6.22;3.60;;;;;;;;;;5135099;27;20047;-81
2022/06/16 12:23:07;;;;;;;9.75;4.43;;;;;;;;;;5119137;27;20035;-83
2022/06/16 12:25:57;;;;;;;6.80;3.67;;;;;;;;;;5103291;27;20054;-82
2022/06/16 12:28:23;;;;;;;8.43;4.00;;;;;;;;;;5091118;27;20049;-82
2022/06/16 12:30:52;;;;;;;7.10;3.95;;;;;;;;;;5117419;27;20518;-83
2022/06/16 12:33:28;;;;;;;7.20;4.60;;;;;;;;;;5113925;27;20062;-85
2022/06/16 12:36:12;;;;;;;10.18;4.47;;;;;;;;;;5091303;28;20044;-82
2022/06/16 12:38:49;;;;;;;7.55;3.80;;;;;;;;;;5091446;28;20499;-82
2022/06/16 12:41:19;;;;;;;7.55;3.97;;;;;;;;;;5090252;28;20093;-82
2022/06/16 12:43:53;;;;;;;8.75;4.30;;;;;;;;;;5090805;28;20470;-81
2022/06/16 12:46:22;;;;;;;7.28;4.10;;;;;;;;;;5074144;28;20044;-83
2022/06/16 12:48:51;;;;;;;6.20;4.00;;;;;;;;;;5102501;27;20035;-82
2022/06/16 12:51:20;;;;;;;9.82;3.65;;;;;;;;;;5131908;27;20039;-82
2022/06/16 12:53:50;;;;;;;6.68;3.50;;;;;;;;;;5113252;28;20471;-82
2022/06/16 12:56:20;;;;;;;6.72;3.83;;;;;;;;;;5094431;28;20077;-83
2022/06/16 12:58:52;;;;;;;6.95;3.97;;;;;;;;;;5096265;28;20078;-82
2022/06/16 13:01:19;;;;;;;7.63;4.35;;;;;;;;;;5115741;28;20177;-82
2022/06/16 13:03:52;;;;;;;5.82;3.80;;;;;;;;;;5122679;27;20047;-83
2022/06/16 13:06:19;;;;;;;8.18;4.20;;;;;;;;;;5092293;28;20047;-84
2022/06/16 13:08:48;;;;;;;5.90;3.80;;;;;;;;;;5095784;28;20043;-82
2022/06/16 13:11:17;;;;;;;8.68;3.90;;;;;;;;;;5099267;28;20524;-83
2022/06/16 13:13:52;;;;;;;6.93;3.47;;;;;;;;;;5113818;28;20031;-83
2022/06/16 13:16:23;;;;;;;6.50;3.55;;;;;;;;;;5114214;28;20050;-86
2022/06/16 13:18:57;;;;;;;8.73;3.97;;;;;;;;;;5099124;28;20040;-83
2022/06/16 13:21:27;;;;;;;8.40;4.30;;;;;;;;;;5098907;28;20110;-84
2022/06/16 13:24:01;;;;;;;9.57;4.13;;;;;;;;;;5098570;28;20046;-82
2022/06/16 13:26:31;;;;;;;9.73;4.67;;;;;;;;;;5112458;27;20046;-83
2022/06/16 13:28:57;;;;;;;7.88;4.40;;;;;;;;;;5129586;27;20285;-83
2022/06/16 13:31:29;;;;;;;6.40;3.78;;;;;;;;;;5105846;27;20039;-84
2022/06/16 13:33:55;;;;;;;6.07;4.00;;;;;;;;;;5121482;27;20122;-82
2022/06/16 13:36:27;;;;;;;6.18;3.63;;;;;;;;;;5093406;28;20032;-83
2022/06/16 13:38:54;;;;;;;7.70;3.58;;;;;;;;;;5103063;27;20035;-82
2022/06/16 13:41:36;;;;;;;7.90;3.88;;;;;;;;;;5134911;27;20039;-82
2022/06/16 13:44:14;;;;;;;6.28;3.20;;;;;;;;;;5118421;27;20402;-84
2022/06/16 13:46:59;;;;;;;6.07;3.10;;;;;;;;;;5111934;28;20132;-83
2022/06/16 13:49:31;;;;;;;7.60;4.00;;;;;;;;;;5096438;28;20032;-83
2022/06/16 13:52:07;;;;;;;6.57;3.28;;;;;;;;;;5095691;28;20086;-82
2022/06/16 13:54:35;;;;;;;7.07;3.83;;;;;;;;;;5112073;28;20040;-83
2022/06/16 13:57:20;;;;;;;7.35;3.83;;;;;;;;;;5120878;27;20074;-84
2022/06/16 13:59:53;;;;;;;7.57;4.00;;;;;;;;;;5100141;28;20047;-82
2022/06/16 14:02:20;;;;;;;9.57;4.07;;;;;;;;;;5110848;28;20402;-81
2022/06/16 14:05:07;;;;;;;7.03;3.60;;;;;;;;;;5102265;27;20390;-81
2022/06/16 14:07:46;;;;;;;6.85;3.47;;;;;;;;;;5133927;27;20039;-82
2022/06/16 14:10:21;;;;;;;7.65;3.85;;;;;;;;;;5117498;27;20042;-89
2022/06/16 14:13:08;;;;;;;7.63;3.78;;;;;;;;;;5117539;27;20158;-87
2022/06/16 14:15:55;;;;;;;6.93;3.78;;;;;;;;;;5102794;28;20376;-83
2022/06/16 14:18:27;;;;;;;7.93;4.90;;;;;;;;;;5096975;28;20084;-84
2022/06/16 14:21:12;;;;;;;7.25;4.50;;;;;;;;;;5113934;28;20061;-82
2022/06/16 14:23:44;;;;;;;6.70;4.00;;;;;;;;;;5113414;28;20027;-83
2022/06/16 14:26:14;;;;;;;7.75;4.40;;;;;;;;;;5096860;28;20447;-86
2022/06/16 14:28:43;;;;;;;9.20;4.30;;;;;;;;;;5112827;28;20054;-84
2022/06/16 14:31:30;;;;;;;6.88;3.50;;;;;;;;;;5096363;28;20043;-86
2022/06/16 14:34:00;;;;;;;7.68;4.00;;;;;;;;;;5096508;28;20040;-85
2022/06/16 14:36:29;;;;;;;5.70;3.10;;;;;;;;;;5096359;28;20043;-83
2022/06/16 14:39:05;;;;;;;8.95;4.60;;;;;;;;;;5113288;28;20069;-84
2022/06/16 14:41:37;;;;;;;7.45;4.03;;;;;;;;;;5100291;27;21112;-83
2022/06/16 14:44:22;;;;;;;10.30;4.00;;;;;;;;;;5135051;27;20039;-82
2022/06/16 14:46:48;;;;;;;;;;;;;;;;;;5117614;27;20039;-84
2022/06/16 14:49:22;;;;;;;9.20;4.00;;;;;;;;;;5134037;27;20033;-83
2022/06/16 14:51:48;;;;;;;6.22;3.75;;;;;;;;;;5116705;27;20035;-83
2022/06/16 14:54:35;;;;;;;7.35;3.85;;;;;;;;;;5117647;27;20043;-82
2022/06/16 14:57:01;;;;;;;7.00;3.60;;;;;;;;;;5116985;27;20039;-82
2022/06/16 14:59:39;;;;;;;8.15;3.67;;;;;;;;;;5117035;27;20046;-84
2022/06/16 15:02:09;;;;;;;9.23;4.18;;;;;;;;;;5133038;27;20042;-82
2022/06/16 15:04:35;;;;;;;6.55;3.88;;;;;;;;;;5115720;27;20458;-82
2022/06/16 15:07:05;;;;;;;6.82;3.92;;;;;;;;;;5116030;27;20139;-83
2022/06/16 15:09:41;;;;;;;5.28;3.15;;;;;;;;;;5116076;27;20031;-82
2022/06/16 15:12:07;;;;;;;6.22;3.55;;;;;;;;;;5115973;27;20075;-82
2022/06/16 15:14:36;;;;;;;6.80;3.67;;;;;;;;;;5117612;27;20126;-82
2022/06/16 15:19:50;;;;;;;7.57;3.97;;;;;;;;;;5113067;28;20043;-82
2022/06/16 15:22:18;;;;;;;8.55;3.75;;;;;;;;;;5095882;28;20497;-83
2022/06/16 15:24:53;;;;;;;7.40;3.55;;;;;;;;;;5078052;28;20047;-82
2022/06/16 15:27:34;;;;;;;7.43;3.67;;;;;;;;;;5095715;28;20403;-81
2022/06/16 15:30:02;;;;;;;8.13;3.45;;;;;;;;;;5112632;28;20096;-82